Time;durP1;ratioP1;P1;durP2;ratioP2;P2;SDS_P1;SDS_P2;PMS_P1;PMS_P2;Temp;Humidity;BMP_temperature;BMP_pressure;BME280_temperature;BME280_humidity;BME280_pressure;Samples;Min_cycle;Max_cycle;Signal;HPM_P1;HPM_P2
2022/11/12 00:00:28;;;;;;;14.13;11.90;;;;;;;4.52;67.32;102565.38;693590;28;862;-81
2022/11/12 00:01:07;;;;;;;13.68;11.73;;;;;;;4.47;67.56;102548.56;693955;28;1201;-81
2022/11/12 00:01:46;;;;;;;16.25;11.30;;;;;;;4.50;67.36;102560.84;688127;28;1043;-81
2022/11/12 00:02:25;;;;;;;16.05;12.20;;;;;;;4.43;67.20;102553.38;694024;28;1443;-81
2022/11/12 00:03:13;;;;;;;13.93;11.93;;;;;;;4.48;67.55;102562.41;695758;28;1311;-82
2022/11/12 00:03:52;;;;;;;14.02;11.43;;;;;;;4.47;67.57;102566.66;698920;28;1148;-81
2022/11/12 00:04:31;;;;;;;14.07;11.30;;;;;;;4.43;67.50;102558.53;690924;28;745;-82
2022/11/12 00:05:10;;;;;;;14.25;11.27;;;;;;;4.45;67.49;102563.06;687447;28;1556;-81
2022/11/12 00:05:50;;;;;;;13.27;10.68;;;;;;;4.48;67.53;102571.06;687336;28;1068;-81
2022/11/12 00:06:29;;;;;;;14.10;11.60;;;;;;;4.37;67.45;102552.06;687948;28;1965;-81
2022/11/12 00:07:08;;;;;;;12.68;11.38;;;;;;;4.43;67.67;102568.88;692983;28;1268;-81
2022/11/12 00:07:47;;;;;;;12.65;11.35;;;;;;;4.46;67.37;102572.63;687949;28;1484;-81
2022/11/12 00:08:26;;;;;;;12.45;11.00;;;;;;;4.41;67.52;102560.09;690984;28;2032;-81
2022/11/12 00:09:05;;;;;;;13.88;11.30;;;;;;;4.38;67.31;102564.22;692273;28;1742;-81
2022/11/12 00:09:45;;;;;;;13.30;11.05;;;;;;;4.46;67.13;102574.28;693234;28;1246;-81
2022/11/12 00:10:24;;;;;;;13.18;11.05;;;;;;;4.38;67.18;102558.16;688127;28;867;-81
2022/11/12 00:11:03;;;;;;;12.93;11.30;;;;;;;4.44;67.19;102565.50;682122;28;1202;-81
2022/11/12 00:11:43;;;;;;;13.90;10.80;;;;;;;4.45;67.51;102573.41;687501;28;1173;-81
2022/11/12 00:12:21;;;;;;;14.95;11.65;;;;;;;4.51;67.38;102573.91;687333;28;1173;-81
2022/11/12 00:13:00;;;;;;;13.70;11.35;;;;;;;4.47;67.46;102570.97;690055;28;957;-81
2022/11/12 00:13:39;;;;;;;12.80;10.52;;;;;;;4.48;67.19;102573.63;692821;28;1040;-81
2022/11/12 00:14:18;;;;;;;13.60;10.82;;;;;;;4.43;67.16;102563.72;692604;28;1379;-82
2022/11/12 00:14:57;;;;;;;13.75;11.25;;;;;;;4.49;67.31;102570.28;696191;28;2498;-81
2022/11/12 00:15:37;;;;;;;14.45;11.05;;;;;;;4.52;67.34;102575.72;693815;28;874;-81
2022/11/12 00:16:16;;;;;;;11.95;10.20;;;;;;;4.47;67.03;102568.38;693269;28;1851;-81
2022/11/12 00:16:55;;;;;;;11.57;10.00;;;;;;;4.45;67.41;102562.16;692525;28;1167;-81
2022/11/12 00:17:34;;;;;;;11.68;10.38;;;;;;;4.43;66.94;102563.72;690811;28;815;-81
2022/11/12 00:18:13;;;;;;;14.18;11.05;;;;;;;4.45;67.09;102565.66;693341;28;1178;-81
2022/11/12 00:18:52;;;;;;;13.02;10.95;;;;;;;4.43;66.90;102562.03;690614;28;1154;-81
2022/11/12 00:19:31;;;;;;;11.80;9.98;;;;;;;4.42;67.13;102561.91;685362;28;799;-81
2022/11/12 00:20:11;;;;;;;12.05;10.25;;;;;;;4.42;66.98;102561.91;686579;28;1317;-81
2022/11/12 00:20:50;;;;;;;11.90;10.55;;;;;;;4.46;67.11;102577.78;692803;28;963;-81
2022/11/12 00:21:29;;;;;;;13.10;10.65;;;;;;;4.43;67.45;102566.28;688167;28;791;-81
2022/11/12 00:22:08;;;;;;;15.70;10.82;;;;;;;4.44;66.94;102573.25;690882;28;1252;-81
2022/11/12 00:23:12;;;;;;;11.88;9.57;;;;;;;4.69;66.95;102583.03;696212;28;1012;-81
2022/11/12 00:23:51;;;;;;;3.30;2.75;;;;;;;4.81;66.21;102558.16;690530;28;1092;-81
2022/11/12 00:24:30;;;;;;;2.47;2.22;;;;;;;4.90;65.71;102558.91;687905;28;1269;-81
2022/11/12 00:25:09;;;;;;;6.95;5.55;;;;;;;4.72;65.58;102572.94;688645;28;1177;-81
2022/11/12 00:25:57;;;;;;;13.00;10.25;;;;;;;4.52;66.13;102579.97;695256;28;1270;-81
2022/11/12 00:26:36;;;;;;;12.70;10.10;;;;;;;4.41;66.37;102566.16;688111;28;1520;-81
2022/11/12 00:27:16;;;;;;;14.85;10.90;;;;;;;4.48;66.76;102596.91;688667;28;1222;-81
2022/11/12 00:28:07;;;;;;;15.10;11.57;;;;;;;4.37;66.96;102567.59;692072;28;1388;-80
2022/11/12 00:28:47;;;;;;;16.20;11.45;;;;;;;4.36;66.71;102568.38;693222;28;1285;-81
2022/11/12 00:29:25;;;;;;;15.02;11.88;;;;;;;4.34;67.29;102564.75;693114;28;1660;-81
2022/11/12 00:30:05;;;;;;;16.48;12.30;;;;;;;4.41;67.02;102575.63;690222;28;1182;-81
2022/11/12 00:31:06;;;;;;;15.73;11.70;;;;;;;4.35;67.14;102570.84;686497;28;1203;-81
2022/11/12 00:31:45;;;;;;;14.57;11.57;;;;;;;4.35;67.28;102569.16;688116;28;1265;-81
2022/11/12 00:32:25;;;;;;;14.38;11.52;;;;;;;4.38;67.30;102578.84;690369;28;1272;-81
2022/11/12 00:33:04;;;;;;;13.70;11.23;;;;;;;4.35;67.18;102581.19;687974;28;1098;-81
2022/11/12 00:33:43;;;;;;;15.43;10.95;;;;;;;4.33;67.12;102575.88;689925;28;1257;-81
2022/11/12 00:34:22;;;;;;;16.83;11.20;;;;;;;4.37;67.14;102580.50;689696;28;1297;-81
2022/11/12 00:35:02;;;;;;;13.75;10.55;;;;;;;4.36;67.14;102576.13;688016;28;953;-81
2022/11/12 00:35:41;;;;;;;13.30;10.90;;;;;;;4.38;67.04;102576.25;690096;28;1016;-81
2022/11/12 00:36:20;;;;;;;13.45;10.90;;;;;;;4.34;66.94;102572.50;694972;28;1964;-81
2022/11/12 00:37:00;;;;;;;13.82;10.63;;;;;;;4.34;66.90;102574.19;693428;28;947;-81
2022/11/12 00:37:40;;;;;;;13.88;11.05;;;;;;;4.39;67.34;102585.81;690526;28;1909;-81
2022/11/12 00:38:19;;;;;;;12.43;10.02;;;;;;;4.32;67.11;102566.31;695455;28;1335;-81
2022/11/12 00:38:58;;;;;;;14.23;10.57;;;;;;;4.35;67.15;102576.03;691976;28;1435;-81
2022/11/12 00:39:37;;;;;;;13.22;10.50;;;;;;;4.32;67.35;102570.56;687106;28;1126;-81
2022/11/12 00:40:16;;;;;;;15.00;10.70;;;;;;;4.32;67.30;102576.66;693466;28;1273;-81
2022/11/12 00:40:58;;;;;;;14.45;10.80;;;;;;;4.28;67.23;102564.25;695918;28;1101;-81
2022/11/12 00:41:37;;;;;;;13.32;10.65;;;;;;;4.34;67.42;102585.44;693152;28;1061;-81
2022/11/12 00:42:16;;;;;;;13.70;10.85;;;;;;;4.26;67.43;102570.97;692372;28;1217;-81
2022/11/12 00:42:56;;;;;;;13.88;11.35;;;;;;;4.26;67.11;102570.06;693158;28;1028;-81
2022/11/12 00:43:35;;;;;;;13.85;10.35;;;;;;;4.26;67.26;102570.97;689839;28;1512;-81
2022/11/12 00:44:14;;;;;;;15.27;10.05;;;;;;;4.34;66.95;102577.69;696275;28;1895;-81
2022/11/12 00:44:53;;;;;;;8.25;4.97;;;;;;;4.67;66.03;102584.59;695105;28;1238;-81
2022/11/12 00:45:32;;;;;;;3.40;3.10;;;;;;;4.56;66.07;102576.88;690708;28;850;-80
2022/11/12 00:46:11;;;;;;;11.05;7.75;;;;;;;4.43;66.42;102589.56;693889;28;1243;-81
2022/11/12 00:46:50;;;;;;;11.57;9.02;;;;;;;4.33;66.74;102588.81;693271;28;2211;-81
2022/11/12 00:47:29;;;;;;;10.45;9.35;;;;;;;4.29;66.64;102586.72;690931;28;1210;-81
2022/11/12 00:48:08;;;;;;;10.68;9.57;;;;;;;4.22;67.13;102579.25;690288;28;2064;-81
2022/11/12 00:48:47;;;;;;;11.35;9.20;;;;;;;4.28;66.94;102597.84;687765;28;953;-81
2022/11/12 00:49:26;;;;;;;10.30;8.70;;;;;;;4.28;67.29;102590.09;684359;28;1391;-81
2022/11/12 00:50:06;;;;;;;10.75;9.65;;;;;;;4.28;67.38;102595.25;681097;28;1894;-80
2022/11/12 00:51:05;;;;;;;12.23;9.80;;;;;;;4.25;66.90;102595.03;692475;28;1101;-81
2022/11/12 00:51:56;;;;;;;10.05;8.77;;;;;;;4.17;67.34;102573.66;693048;28;986;-81
2022/11/12 00:52:35;;;;;;;12.07;9.18;;;;;;;4.24;67.14;102596.69;693220;28;1165;-81
2022/11/12 00:53:14;;;;;;;15.32;9.65;;;;;;;4.27;67.26;102598.63;694648;28;1129;-81
2022/11/12 00:53:53;;;;;;;12.38;9.20;;;;;;;4.22;67.54;102589.56;692427;28;1386;-81
2022/11/12 00:54:33;;;;;;;11.80;9.30;;;;;;;4.24;67.39;102582.88;682786;28;1210;-81
2022/11/12 00:55:12;;;;;;;7.70;4.85;;;;;;;4.64;66.42;102600.75;687543;28;1187;-81
2022/11/12 00:55:51;;;;;;;3.28;2.97;;;;;;;4.60;65.81;102590.97;690620;28;2043;-81
2022/11/12 00:56:29;;;;;;;3.40;3.10;;;;;;;4.70;65.83;102582.25;695389;28;862;-81
2022/11/12 00:57:09;;;;;;;3.40;2.97;;;;;;;4.78;65.40;102595.03;693608;28;1897;-81
2022/11/12 00:57:48;;;;;;;4.57;3.75;;;;;;;4.73;65.18;102585.09;695138;28;1395;-81
2022/11/12 00:58:29;;;;;;;7.88;4.70;;;;;;;4.70;64.73;102579.66;690565;28;1210;-81
2022/11/12 00:59:08;;;;;;;9.25;5.22;;;;;;;4.70;64.89;102584.84;691067;28;1280;-81
2022/11/12 00:59:47;;;;;;;8.08;4.96;;;;;;;4.68;64.83;102582.16;690176;28;1104;-81
2022/11/12 01:00:26;;;;;;;6.25;4.75;;;;;;;4.67;64.96;102579.41;690088;28;1223;-81
2022/11/12 01:01:12;;;;;;;6.50;5.10;;;;;;;4.68;64.68;102587.31;691561;28;1258;-81
2022/11/12 01:01:51;;;;;;;3.33;3.03;;;;;;;4.74;64.83;102592.06;687737;28;1024;-81
2022/11/12 01:02:30;;;;;;;10.70;9.10;;;;;;;4.81;64.63;102596.97;685224;28;799;-80
2022/11/12 01:03:09;;;;;;;4.20;3.67;;;;;;;4.87;64.62;102597.47;684082;28;1191;-81
2022/11/12 01:03:48;;;;;;;1.83;1.70;;;;;;;4.84;64.45;102586.84;689725;28;1004;-81
2022/11/12 01:04:27;;;;;;;2.65;2.35;;;;;;;4.92;64.42;102595.25;690606;28;1251;-81
2022/11/12 01:05:07;;;;;;;2.30;1.95;;;;;;;4.92;64.15;102598.72;689341;28;1225;-81
2022/11/12 01:05:46;;;;;;;3.72;1.85;;;;;;;4.89;64.06;102589.81;689677;28;1443;-81
2022/11/12 01:06:25;;;;;;;2.40;1.82;;;;;;;4.88;63.98;102588.94;692644;28;1911;-81
2022/11/12 01:07:04;;;;;;;2.00;1.70;;;;;;;4.92;64.22;102597.84;693029;28;1136;-81
2022/11/12 01:07:43;;;;;;;2.13;1.70;;;;;;;4.93;63.80;102605.72;690115;28;1083;-82
2022/11/12 01:08:22;;;;;;;2.30;2.10;;;;;;;4.95;63.58;102608.44;693148;28;1224;-79
2022/11/12 01:09:02;;;;;;;1.90;1.60;;;;;;;4.90;63.91;102597.72;692621;28;1079;-79
2022/11/12 01:09:41;;;;;;;1.60;1.50;;;;;;;4.90;63.99;102595.13;690513;28;1296;-79
2022/11/12 01:10:20;;;;;;;3.53;1.55;;;;;;;4.91;63.97;102602.09;695501;28;1272;-80
2022/11/12 01:11:27;;;;;;;3.70;1.70;;;;;;;5.01;63.64;102610.59;689930;28;1098;-79
2022/11/12 01:12:06;;;;;;;3.13;2.33;;;;;;;4.89;63.47;102601.09;691397;28;1419;-79
2022/11/12 01:12:45;;;;;;;1.67;1.58;;;;;;;4.93;63.72;102610.88;692054;28;2047;-80
2022/11/12 01:13:24;;;;;;;1.92;1.73;;;;;;;4.96;63.86;102609.34;685162;28;1161;-79
2022/11/12 01:14:06;;;;;;;2.45;2.05;;;;;;;4.90;63.61;102607.16;686991;28;1241;-79
2022/11/12 01:14:45;;;;;;;2.40;2.10;;;;;;;4.89;63.56;102603.66;692994;28;1019;-80
2022/11/12 01:15:24;;;;;;;2.00;1.63;;;;;;;4.87;63.70;102599.16;692898;28;911;-79
2022/11/12 01:16:07;;;;;;;2.33;1.77;;;;;;;4.91;63.41;102607.28;684527;28;1219;-79
2022/11/12 01:16:47;;;;;;;17.38;12.52;;;;;;;4.93;63.51;102616.06;687839;28;1147;-79
2022/11/12 01:17:26;;;;;;;4.55;3.75;;;;;;;4.85;63.72;102605.88;688127;28;1451;-79
2022/11/12 01:18:05;;;;;;;3.92;1.95;;;;;;;4.80;63.81;102597.75;690512;28;1371;-78
2022/11/12 01:18:45;;;;;;;3.50;1.92;;;;;;;4.88;63.64;102607.03;690493;28;1038;-79
2022/11/12 01:19:24;;;;;;;1.48;1.33;;;;;;;4.82;63.57;102601.38;684817;28;1656;-79
2022/11/12 01:20:03;;;;;;;1.67;1.35;;;;;;;4.83;63.79;102605.75;684529;28;1984;-79
2022/11/12 01:20:42;;;;;;;1.65;1.30;;;;;;;4.89;63.46;102607.94;687736;28;1172;-79
2022/11/12 01:21:24;;;;;;;2.17;1.20;;;;;;;4.77;63.51;102588.06;692984;28;1110;-79
2022/11/12 01:22:03;;;;;;;1.65;1.55;;;;;;;4.84;63.66;102598.91;693051;28;1311;-79
2022/11/12 01:22:42;;;;;;;1.38;1.27;;;;;;;4.84;63.74;102593.75;684952;28;1354;-79
2022/11/12 01:23:21;;;;;;;0.82;0.82;;;;;;;4.84;63.45;102594.63;690188;28;1139;-79
2022/11/12 01:24:00;;;;;;;1.35;1.08;;;;;;;4.87;63.83;102594.88;687762;28;1259;-79
2022/11/12 01:24:41;;;;;;;1.80;1.30;;;;;;;4.83;63.55;102597.09;692686;28;1167;-79
2022/11/12 01:25:20;;;;;;;1.10;0.95;;;;;;;4.84;63.67;102588.56;686726;28;1194;-79
2022/11/12 01:26:08;;;;;;;1.00;1.00;;;;;;;4.88;63.38;102599.28;684676;28;901;-79
2022/11/12 01:26:47;;;;;;;1.20;1.10;;;;;;;4.91;63.40;102606.41;688003;28;1166;-79
2022/11/12 01:27:26;;;;;;;1.10;1.00;;;;;;;4.83;63.49;102592.81;693231;28;1340;-80
2022/11/12 01:28:04;;;;;;;0.80;0.80;;;;;;;4.87;63.65;102599.16;690554;28;1181;-79
2022/11/12 01:28:43;;;;;;;1.10;0.80;;;;;;;4.83;63.58;102591.94;689155;28;1355;-79
2022/11/12 01:29:22;;;;;;;2.00;1.00;;;;;;;4.84;63.62;102594.63;689914;28;1293;-79
2022/11/12 01:30:03;;;;;;;1.05;0.93;;;;;;;4.79;63.71;102580.44;689979;28;2047;-80
2022/11/12 01:30:42;;;;;;;1.85;1.13;;;;;;;4.84;63.51;102593.75;684551;28;1091;-81
2022/11/12 01:31:27;;;;;;;1.20;1.00;;;;;;;4.86;63.53;102599.94;689813;28;1215;-81
2022/11/12 01:32:09;;;;;;;2.40;1.40;;;;;;;4.84;63.55;102597.22;688232;28;1420;-81
2022/11/12 01:32:48;;;;;;;2.22;1.48;;;;;;;4.79;63.56;102585.59;693648;28;1027;-81
2022/11/12 01:33:27;;;;;;;1.67;1.40;;;;;;;4.82;63.64;102601.38;688288;28;1767;-81
2022/11/12 01:34:08;;;;;;;2.10;1.40;;;;;;;4.87;63.26;102605.25;692415;28;1381;-81
2022/11/12 01:34:46;;;;;;;1.40;1.30;;;;;;;4.82;63.18;102600.44;691619;28;1643;-81
2022/11/12 01:35:25;;;;;;;1.00;1.00;;;;;;;4.82;63.80;102600.44;693275;28;1372;-81
2022/11/12 01:36:05;;;;;;;1.20;1.10;;;;;;;4.86;63.44;102608.59;692444;28;1208;-81
2022/11/12 01:36:44;;;;;;;1.80;1.70;;;;;;;4.81;63.64;102599.56;690584;28;1669;-81
2022/11/12 01:37:23;;;;;;;1.88;1.77;;;;;;;4.83;63.35;102598.00;692655;28;1042;-81
2022/11/12 01:38:02;;;;;;;1.10;1.00;;;;;;;4.84;63.50;102609.25;687308;28;1010;-81
2022/11/12 01:38:43;;;;;;;1.10;1.00;;;;;;;4.84;63.19;102598.91;686937;28;1317;-81
2022/11/12 01:39:21;;;;;;;1.60;1.50;;;;;;;4.77;63.35;102592.31;686500;28;1140;-81
2022/11/12 01:40:00;;;;;;;0.90;0.90;;;;;;;4.82;63.38;102601.38;692053;28;1823;-81
2022/11/12 01:40:39;;;;;;;1.30;1.15;;;;;;;4.82;63.40;102600.44;692745;28;995;-81
2022/11/12 01:41:23;;;;;;;1.20;1.10;;;;;;;4.78;63.20;102595.03;697458;28;1197;-81
2022/11/12 01:42:02;;;;;;;0.90;0.80;;;;;;;4.80;63.56;102605.53;695928;28;1182;-81
2022/11/12 01:42:42;;;;;;;1.10;1.00;;;;;;;4.84;63.22;102606.69;693165;28;1084;-81
2022/11/12 01:43:21;;;;;;;1.17;1.08;;;;;;;4.81;63.53;102602.16;692981;28;1201;-81
2022/11/12 01:44:10;;;;;;;1.20;1.10;;;;;;;4.89;62.99;102624.38;690179;28;1156;-80
2022/11/12 01:44:50;;;;;;;10.00;7.43;;;;;;;4.79;63.45;102595.97;690895;28;1213;-81
2022/11/12 01:45:29;;;;;;;4.95;3.22;;;;;;;4.80;63.57;102600.34;690472;28;1292;-81
2022/11/12 01:46:19;;;;;;;1.73;1.20;;;;;;;4.86;63.19;102608.59;694609;28;1312;-81
2022/11/12 01:47:18;;;;;;;1.70;1.35;;;;;;;4.88;63.25;102613.88;693187;28;1057;-81
2022/11/12 01:47:57;;;;;;;1.80;1.42;;;;;;;4.75;63.33;102593.88;695133;28;1692;-81
2022/11/12 01:48:51;;;;;;;1.80;1.60;;;;;;;4.82;63.67;102606.53;690461;28;861;-81
2022/11/12 01:49:34;;;;;;;0.90;0.90;;;;;;;4.76;63.65;102600.84;684779;28;1114;-81
2022/11/12 01:50:20;;;;;;;1.10;1.10;;;;;;;4.81;63.51;102609.91;690884;28;1162;-81
2022/11/12 01:51:03;;;;;;;1.20;1.10;;;;;;;4.74;63.41;102593.00;691272;28;1017;-81
2022/11/12 01:51:47;;;;;;;1.30;1.20;;;;;;;4.77;63.49;102605.25;690406;28;2187;-81
2022/11/12 01:52:44;;;;;;;1.63;1.52;;;;;;;4.82;63.71;102613.38;690433;28;1269;-81
2022/11/12 01:53:27;;;;;;;1.50;1.40;;;;;;;4.74;63.62;102602.44;694415;28;1864;-81
2022/11/12 01:54:09;;;;;;;1.50;1.40;;;;;;;4.74;63.68;102598.16;690789;28;1173;-81
2022/11/12 01:54:53;;;;;;;1.30;1.20;;;;;;;4.77;63.72;102598.41;690236;28;2209;-81
2022/11/12 01:55:36;;;;;;;1.13;1.02;;;;;;;4.79;63.30;102603.72;687872;28;912;-81
2022/11/12 01:56:17;;;;;;;1.90;1.80;;;;;;;4.77;63.45;102605.25;689830;28;1202;-81
2022/11/12 01:56:57;;;;;;;2.50;1.85;;;;;;;4.71;63.51;102595.31;690350;28;2047;-81
2022/11/12 01:57:40;;;;;;;2.95;1.63;;;;;;;4.73;63.10;102598.03;685185;28;860;-81
2022/11/12 01:58:23;;;;;;;1.65;1.55;;;;;;;4.69;63.35;102594.28;689616;28;1448;-81
2022/11/12 01:59:11;;;;;;;1.45;1.35;;;;;;;4.75;63.29;102606.81;687811;28;1099;-81
2022/11/12 01:59:53;;;;;;;1.52;1.42;;;;;;;4.81;63.21;102611.56;689921;28;1202;-81
2022/11/12 02:00:33;;;;;;;1.10;1.06;;;;;;;4.73;63.66;102605.78;688805;28;1286;-80
2022/11/12 02:01:12;;;;;;;1.67;1.48;;;;;;;4.69;63.18;102604.63;690026;28;1146;-81
2022/11/12 02:01:51;;;;;;;3.65;1.45;;;;;;;4.69;63.39;102598.53;690119;28;1043;-81
2022/11/12 02:02:31;;;;;;;3.40;1.30;;;;;;;4.68;63.17;102610.59;690975;28;1467;-81
2022/11/12 02:03:21;;;;;;;1.00;1.00;;;;;;;4.76;63.40;102618.97;690802;28;1381;-81
2022/11/12 02:04:01;;;;;;;0.93;0.93;;;;;;;4.64;63.37;102599.09;691394;28;992;-81
2022/11/12 02:04:41;;;;;;;1.20;1.10;;;;;;;4.64;63.27;102609.44;692649;28;1427;-80
2022/11/12 02:05:22;;;;;;;1.10;1.00;;;;;;;4.69;63.42;102614.06;692568;28;1265;-82
2022/11/12 02:06:08;;;;;;;1.38;1.25;;;;;;;4.63;63.44;102605.06;692867;28;936;-81
2022/11/12 02:06:49;;;;;;;1.77;1.67;;;;;;;4.65;63.55;102608.66;684940;28;984;-82
2022/11/12 02:07:31;;;;;;;1.30;1.20;;;;;;;4.62;63.54;102602.31;691215;28;867;-79
2022/11/12 02:08:11;;;;;;;0.90;0.90;;;;;;;4.59;63.44;102602.09;692870;28;1276;-79
2022/11/12 02:08:50;;;;;;;0.90;0.90;;;;;;;4.64;63.28;102609.44;692929;28;1039;-79
2022/11/12 02:09:31;;;;;;;1.58;1.48;;;;;;;4.60;63.67;102604.78;690353;28;850;-79
2022/11/12 02:10:10;;;;;;;2.47;1.70;;;;;;;4.61;63.42;102603.13;692115;28;1221;-79
2022/11/12 02:10:49;;;;;;;1.70;0.98;;;;;;;4.61;63.47;102601.41;691630;28;1738;-81
2022/11/12 02:11:28;;;;;;;1.55;1.33;;;;;;;4.59;63.31;102594.34;687751;28;803;-81
2022/11/12 02:13:56;;;;;;;2.35;1.77;;;;;;;4.64;63.30;102614.63;691158;28;1288;-81
2022/11/12 02:14:05;;;;;;;2.40;1.45;;;;;;;4.62;63.20;102591.97;695229;28;1254;-79
2022/11/12 02:14:45;;;;;;;1.75;1.52;;;;;;;4.65;63.22;102598.31;696186;28;982;-79
2022/11/12 02:15:25;;;;;;;2.28;1.25;;;;;;;4.63;63.13;102589.53;694233;28;1351;-79
2022/11/12 02:16:06;;;;;;;2.75;1.05;;;;;;;4.65;63.13;102595.72;690340;28;1280;-79
2022/11/12 02:16:47;;;;;;;1.90;1.20;;;;;;;4.68;63.16;102597.66;687611;28;1060;-79
2022/11/12 02:17:26;;;;;;;1.40;1.30;;;;;;;4.70;63.31;102597.75;692740;28;823;-78
2022/11/12 02:18:06;;;;;;;1.90;1.40;;;;;;;4.64;62.98;102593.00;686777;28;1313;-79
2022/11/12 02:18:46;;;;;;;1.90;1.60;;;;;;;4.58;63.35;102585.66;682202;28;1399;-79
2022/11/12 02:19:25;;;;;;;1.50;1.30;;;;;;;4.60;63.26;102599.59;683034;29;796;-79
2022/11/12 02:20:08;;;;;;;1.58;1.48;;;;;;;4.60;63.23;102589.25;686793;28;1400;-80
2022/11/12 02:20:54;;;;;;;1.25;1.15;;;;;;;4.62;63.48;102592.91;690760;28;1007;-79
2022/11/12 02:21:34;;;;;;;2.05;1.75;;;;;;;4.64;63.51;102586.16;689029;28;1197;-79
2022/11/12 02:22:13;;;;;;;2.53;2.22;;;;;;;4.61;63.22;102585.88;689610;28;1115;-79
2022/11/12 02:22:52;;;;;;;1.48;1.38;;;;;;;4.59;63.11;102587.47;685386;28;1162;-80
2022/11/12 02:23:31;;;;;;;1.40;1.30;;;;;;;4.67;63.34;102592.34;688167;28;1875;-79
2022/11/12 02:24:10;;;;;;;1.63;1.52;;;;;;;4.70;63.53;102602.94;689076;28;1170;-79
2022/11/12 02:24:49;;;;;;;2.15;1.83;;;;;;;4.59;63.22;102582.28;692577;28;1308;-79
2022/11/12 02:25:28;;;;;;;2.80;2.17;;;;;;;4.64;63.14;102590.41;691186;28;851;-79
2022/11/12 02:26:07;;;;;;;5.03;3.55;;;;;;;4.58;63.29;102595.09;690101;28;1201;-79
2022/11/12 02:26:50;;;;;;;6.03;4.18;;;;;;;4.56;63.21;102587.22;688157;28;1053;-79
2022/11/12 02:27:29;;;;;;;5.32;3.40;;;;;;;4.36;63.54;102598.50;691017;28;832;-79
2022/11/12 02:28:16;;;;;;;5.65;5.03;;;;;;;4.35;63.77;102597.59;691643;28;1276;-81
2022/11/12 02:28:55;;;;;;;4.15;3.13;;;;;;;4.30;63.65;102578.19;696063;28;1157;-81
2022/11/12 02:29:34;;;;;;;4.50;3.10;;;;;;;4.32;63.95;102576.66;688295;28;1362;-81
2022/11/12 02:30:13;;;;;;;4.80;3.47;;;;;;;4.38;63.81;102592.66;692298;28;1130;-81
2022/11/12 02:30:52;;;;;;;4.25;3.42;;;;;;;4.34;64.07;102590.63;692264;28;1813;-81
2022/11/12 02:31:31;;;;;;;6.10;3.63;;;;;;;4.38;63.92;102592.66;695985;28;850;-81
2022/11/12 02:32:14;;;;;;;6.32;3.97;;;;;;;4.36;63.58;102588.16;692460;28;2123;-80
2022/11/12 02:32:53;;;;;;;4.32;3.92;;;;;;;4.32;63.67;102576.66;693413;28;1095;-82
2022/11/12 02:33:32;;;;;;;4.32;3.40;;;;;;;4.33;63.97;102586.22;690951;28;1382;-81
2022/11/12 02:34:13;;;;;;;3.50;2.92;;;;;;;4.40;63.87;102578.97;690635;28;1112;-81
2022/11/12 02:34:52;;;;;;;2.53;1.77;;;;;;;4.39;63.77;102575.47;687967;28;1228;-81
2022/11/12 02:35:31;;;;;;;3.83;1.83;;;;;;;4.44;63.32;102588.78;687774;28;1277;-81
2022/11/12 02:36:10;;;;;;;4.32;2.50;;;;;;;4.45;63.12;102582.81;689582;28;1672;-81
2022/11/12 02:36:49;;;;;;;3.30;2.80;;;;;;;4.43;63.46;102582.72;691719;28;1138;-81
2022/11/12 02:37:28;;;;;;;2.53;2.15;;;;;;;4.45;63.46;102588.91;693067;28;850;-81
2022/11/12 02:38:08;;;;;;;2.50;2.30;;;;;;;4.49;63.27;102592.66;696187;28;1311;-81
2022/11/12 02:38:47;;;;;;;5.93;5.53;;;;;;;4.40;63.32;102578.97;693582;28;1028;-81
2022/11/12 02:39:26;;;;;;;2.45;2.25;;;;;;;4.41;63.47;102580.78;690991;28;898;-81
2022/11/12 02:40:06;;;;;;;3.40;2.58;;;;;;;4.41;63.14;102576.50;689688;28;1883;-81
2022/11/12 02:40:45;;;;;;;3.08;2.78;;;;;;;4.48;63.45;102583.09;690429;28;1294;-81
2022/11/12 02:41:25;;;;;;;10.15;4.00;;;;;;;4.49;63.00;102584.91;690513;28;858;-81
2022/11/12 02:42:04;;;;;;;8.90;5.70;;;;;;;4.49;63.08;102578.03;690514;28;1276;-81
2022/11/12 02:42:43;;;;;;;8.85;6.00;;;;;;;4.54;63.21;102583.56;692938;28;1267;-81
2022/11/12 02:43:22;;;;;;;11.18;6.70;;;;;;;4.54;62.87;102590.44;696149;28;1255;-81
2022/11/12 02:44:01;;;;;;;12.40;7.20;;;;;;;4.59;63.06;102589.16;693690;28;1008;-81
2022/11/12 02:44:40;;;;;;;11.63;6.55;;;;;;;4.51;62.78;102578.16;695728;28;1055;-81
2022/11/12 02:45:20;;;;;;;9.98;6.22;;;;;;;4.51;62.82;102579.09;695874;28;1359;-80
2022/11/12 02:45:59;;;;;;;10.32;5.03;;;;;;;4.48;62.78;102584.00;693457;28;1022;-80
2022/11/12 02:46:38;;;;;;;7.72;4.25;;;;;;;4.48;63.04;102588.28;693267;28;1977;-80
2022/11/12 02:47:17;;;;;;;8.55;4.43;;;;;;;4.43;62.84;102576.63;692795;28;1209;-81
2022/11/12 02:47:57;;;;;;;8.32;4.85;;;;;;;4.21;63.21;102587.75;690678;28;1671;-79
2022/11/12 02:48:36;;;;;;;8.07;7.28;;;;;;;3.91;63.83;102594.72;685475;28;1166;-81
2022/11/12 02:49:15;;;;;;;9.80;8.60;;;;;;;3.72;64.98;102588.00;686359;28;1249;-81
2022/11/12 02:49:54;;;;;;;9.45;6.97;;;;;;;3.94;64.79;102582.06;690485;28;1079;-80
2022/11/12 02:50:33;;;;;;;8.27;4.97;;;;;;;4.08;64.38;102586.72;690231;28;1436;-81
2022/11/12 02:51:12;;;;;;;7.72;4.47;;;;;;;4.14;64.11;102590.59;693360;28;1221;-82
2022/11/12 02:51:51;;;;;;;5.45;4.10;;;;;;;4.07;64.06;102578.84;690538;28;1140;-81
2022/11/12 02:52:31;;;;;;;4.40;3.90;;;;;;;4.10;64.10;102568.75;690434;28;914;-81
2022/11/12 02:53:10;;;;;;;5.93;5.30;;;;;;;3.94;64.25;102572.63;690413;28;1150;-81
2022/11/12 02:53:49;;;;;;;5.72;4.30;;;;;;;4.04;64.19;102579.47;693382;28;1130;-81
2022/11/12 02:54:28;;;;;;;5.00;3.10;;;;;;;4.07;63.99;102584.00;690159;28;1146;-80
2022/11/12 02:55:09;;;;;;;4.90;3.33;;;;;;;4.16;63.85;102589.06;686067;28;1808;-81
2022/11/12 02:55:49;;;;;;;2.50;2.10;;;;;;;4.17;63.93;102596.91;688312;28;1100;-81
2022/11/12 02:56:28;;;;;;;4.20;3.30;;;;;;;4.08;63.98;102581.56;687501;28;1288;-81
2022/11/12 02:57:07;;;;;;;3.22;2.42;;;;;;;4.05;63.84;102581.28;688512;28;1320;-81
2022/11/12 02:57:46;;;;;;;4.38;3.15;;;;;;;4.08;63.76;102580.66;687457;28;1352;-81
2022/11/12 02:58:25;;;;;;;5.30;4.03;;;;;;;4.15;63.72;102597.56;690251;28;1264;-81
2022/11/12 02:59:04;;;;;;;3.28;2.67;;;;;;;4.16;63.81;102589.06;690563;28;1691;-81
2022/11/12 02:59:43;;;;;;;1.48;1.38;;;;;;;4.13;63.54;102587.13;692639;28;1051;-81
2022/11/12 03:00:23;;;;;;;1.52;1.42;;;;;;;4.14;63.86;102593.16;690790;28;1241;-81
2022/11/12 03:01:02;;;;;;;1.33;1.23;;;;;;;4.13;63.32;102583.63;692820;28;1059;-81
2022/11/12 03:01:41;;;;;;;1.10;1.10;;;;;;;4.18;63.58;102592.66;690299;28;1311;-81
2022/11/12 03:02:20;;;;;;;3.70;1.30;;;;;;;4.21;63.49;102595.50;692788;28;1238;-81
2022/11/12 03:03:00;;;;;;;2.80;1.30;;;;;;;4.21;63.68;102587.75;687226;28;1849;-81
2022/11/12 03:03:39;;;;;;;2.25;1.58;;;;;;;4.15;63.34;102582.06;694961;28;1082;-81
2022/11/12 03:04:18;;;;;;;6.80;2.97;;;;;;;4.27;63.35;102592.53;692134;28;1280;-81
2022/11/12 03:04:57;;;;;;;3.55;3.08;;;;;;;4.23;63.24;102581.97;696114;28;1086;-80
2022/11/12 03:05:36;;;;;;;7.72;4.78;;;;;;;4.29;62.82;102591.00;697493;28;878;-80
2022/11/12 03:06:15;;;;;;;7.90;5.50;;;;;;;4.27;62.82;102583.13;693823;28;1327;-81
2022/11/12 03:06:54;;;;;;;8.98;5.68;;;;;;;4.31;63.27;102594.63;690769;28;1186;-81
2022/11/12 03:07:33;;;;;;;11.35;5.50;;;;;;;4.34;62.93;102600.94;685592;28;831;-81
2022/11/12 03:08:12;;;;;;;9.50;5.90;;;;;;;4.28;63.28;102581.47;687341;28;1260;-81
2022/11/12 03:08:51;;;;;;;10.85;5.68;;;;;;;4.34;62.92;102600.03;687401;28;1027;-81
2022/11/12 03:09:30;;;;;;;11.43;5.88;;;;;;;4.30;63.34;102593.69;687464;28;1491;-80
2022/11/12 03:10:09;;;;;;;9.02;5.78;;;;;;;4.20;63.03;102591.09;691128;28;1292;-80
2022/11/12 03:10:48;;;;;;;11.63;8.70;;;;;;;3.79;63.77;102590.34;691442;28;1179;-81
2022/11/12 03:11:27;;;;;;;17.30;11.05;;;;;;;3.63;64.84;102593.31;689416;28;1476;-81
2022/11/12 03:12:06;;;;;;;17.50;11.35;;;;;;;3.51;65.20;102585.41;693262;28;1185;-80
2022/11/12 03:12:46;;;;;;;14.25;10.65;;;;;;;3.63;65.17;102587.22;694377;28;1172;-81
2022/11/12 03:13:25;;;;;;;10.95;7.18;;;;;;;3.95;65.06;102594.22;690402;28;1687;-81
2022/11/12 03:14:04;;;;;;;10.18;5.82;;;;;;;4.06;64.89;102595.13;691096;28;1209;-80
2022/11/12 03:14:43;;;;;;;11.85;7.22;;;;;;;3.95;64.72;102601.97;695702;28;1019;-81
2022/11/12 03:15:23;;;;;;;7.47;5.72;;;;;;;4.03;64.37;102602.59;690204;28;1209;-80